createdAt,value
2022-10-20T00:01:37.937Z,12.10
2022-10-20T00:11:43.022Z,8.23
2022-10-20T00:16:45.176Z,7.07
2022-10-20T00:21:47.221Z,11.40
2022-10-20T00:26:49.686Z,8.00
2022-10-20T00:31:51.767Z,10.25
2022-10-20T00:36:53.818Z,7.17
2022-10-20T00:41:55.905Z,7.70
2022-10-20T00:46:58.395Z,8.23
2022-10-20T00:52:00.406Z,9.05
2022-10-20T01:02:10.550Z,10.65
2022-10-20T01:07:12.560Z,17.55
2022-10-20T01:12:50.845Z,7.33
2022-10-20T01:18:18.988Z,8.65
2022-10-20T01:23:32.954Z,18.35
2022-10-20T01:28:49.708Z,8.30
2022-10-20T01:34:19.204Z,5.35
2022-10-20T01:39:39.635Z,7.20
2022-10-20T01:44:43.152Z,5.95
2022-10-20T01:49:48.277Z,6.75
2022-10-20T01:54:50.320Z,9.30
2022-10-20T02:00:16.723Z,8.57
2022-10-20T02:05:41.885Z,5.75
2022-10-20T02:10:51.040Z,9.35
2022-10-20T02:15:56.645Z,7.50
2022-10-20T02:21:02.309Z,13.05
2022-10-20T02:26:07.079Z,13.95
2022-10-20T02:31:09.759Z,12.20
2022-10-20T02:36:20.772Z,11.52
2022-10-20T02:41:22.899Z,10.00
2022-10-20T02:46:25.032Z,9.23
2022-10-20T02:51:27.079Z,10.77
2022-10-20T02:56:30.988Z,10.17
2022-10-20T03:01:33.433Z,13.75
2022-10-20T03:06:35.955Z,11.12
2022-10-20T03:11:38.026Z,8.88
2022-10-20T03:16:40.090Z,9.80
2022-10-20T03:21:42.140Z,7.18
2022-10-20T03:26:44.173Z,11.67
2022-10-20T03:31:46.349Z,11.80
2022-10-20T03:36:48.483Z,9.02
2022-10-20T03:41:50.469Z,9.00
2022-10-20T03:46:52.505Z,9.93
2022-10-20T03:51:54.510Z,10.07
2022-10-20T03:56:56.755Z,10.27
2022-10-20T04:01:58.949Z,7.80
2022-10-20T04:07:01.058Z,9.85
2022-10-20T04:12:03.137Z,8.63
2022-10-20T04:17:06.359Z,9.80
2022-10-20T04:22:08.460Z,9.00
2022-10-20T04:27:10.533Z,11.50
2022-10-20T04:37:15.324Z,11.10
2022-10-20T04:42:20.626Z,12.87
2022-10-20T04:47:22.640Z,10.20
2022-10-20T04:52:24.802Z,10.57
2022-10-20T04:57:27.484Z,12.77
2022-10-20T05:02:30.430Z,8.98
2022-10-20T05:07:32.486Z,12.35
2022-10-20T05:12:34.852Z,11.70
2022-10-20T05:17:37.314Z,11.12
2022-10-20T05:22:39.652Z,6.95
2022-10-20T05:27:41.936Z,8.63
2022-10-20T05:32:45.407Z,8.07
2022-10-20T05:37:47.415Z,9.25
2022-10-20T05:42:49.541Z,11.10
2022-10-20T05:47:51.544Z,7.22
2022-10-20T05:52:54.013Z,15.07
2022-10-20T05:57:56.534Z,13.30
2022-10-20T06:02:58.633Z,14.95
2022-10-20T06:08:00.697Z,10.27
2022-10-20T06:13:02.746Z,6.35
2022-10-20T06:18:04.763Z,9.97
2022-10-20T06:23:06.749Z,10.40
2022-10-20T06:28:08.758Z,9.70
2022-10-20T06:33:12.313Z,16.00
2022-10-20T06:38:14.367Z,7.67
2022-10-20T06:43:16.423Z,9.90
2022-10-20T06:48:18.450Z,8.63
2022-10-20T06:53:20.441Z,7.47
2022-10-20T06:58:22.594Z,10.20
2022-10-20T07:03:24.637Z,12.90
2022-10-20T07:08:31.714Z,12.47
2022-10-20T07:13:36.217Z,12.67
2022-10-20T07:18:39.075Z,7.73
2022-10-20T07:23:42.112Z,10.57
2022-10-20T07:28:46.965Z,5.90
2022-10-20T07:34:07.232Z,13.50
2022-10-20T07:39:13.299Z,12.07
2022-10-20T07:44:16.011Z,7.60
2022-10-20T07:54:40.178Z,9.33
2022-10-20T07:59:42.348Z,9.70
2022-10-20T08:04:45.543Z,8.90
2022-10-20T08:09:47.607Z,10.98
2022-10-20T08:14:54.599Z,10.37
2022-10-20T08:20:27.394Z,28.42
2022-10-20T08:25:29.583Z,14.93
2022-10-20T08:30:31.622Z,11.40
2022-10-20T08:35:33.628Z,11.70
2022-10-20T08:40:39.537Z,8.13
2022-10-20T08:45:41.703Z,20.75
2022-10-20T08:50:46.668Z,10.50
2022-10-20T08:55:48.886Z,8.60
2022-10-20T09:01:01.099Z,16.12
2022-10-20T09:06:14.056Z,15.15
2022-10-20T09:11:23.896Z,14.68
2022-10-20T09:16:42.201Z,12.35
2022-10-20T09:21:57.514Z,14.85
2022-10-20T09:27:24.727Z,17.65
2022-10-20T09:32:50.923Z,16.08
2022-10-20T09:37:55.019Z,11.18
2022-10-20T09:43:07.520Z,17.35
2022-10-20T09:48:22.106Z,15.20
2022-10-20T09:53:33.019Z,14.65
2022-10-20T09:58:37.780Z,14.73
2022-10-20T10:03:43.310Z,15.80
2022-10-20T10:08:47.381Z,15.20
2022-10-20T10:13:52.782Z,17.73
2022-10-20T10:19:03.838Z,13.75
2022-10-20T10:24:06.223Z,12.43
2022-10-20T10:29:27.268Z,16.83
2022-10-20T10:34:35.063Z,14.27
2022-10-20T10:39:37.238Z,18.52
2022-10-20T10:44:54.668Z,16.55
2022-10-20T10:50:03.609Z,13.23
2022-10-20T10:55:11.899Z,10.30
2022-10-20T11:00:28.870Z,16.83
2022-10-20T11:05:40.967Z,14.02
2022-10-20T11:11:01.102Z,15.32
2022-10-20T11:16:15.202Z,15.82
2022-10-20T11:21:23.220Z,10.73
2022-10-20T11:26:32.681Z,16.60
2022-10-20T11:31:44.157Z,23.70
2022-10-20T11:37:15.601Z,21.35
2022-10-20T11:42:37.246Z,13.88
2022-10-20T11:47:42.603Z,13.65
2022-10-20T11:53:13.573Z,13.13
2022-10-20T11:58:37.294Z,15.52
2022-10-20T12:09:19.606Z,12.48
2022-10-20T12:14:30.366Z,11.43
2022-10-20T12:19:34.576Z,9.68
2022-10-20T12:24:38.046Z,15.90
2022-10-20T12:29:43.136Z,11.00
2022-10-20T12:34:45.415Z,11.07
2022-10-20T12:39:47.927Z,12.37
2022-10-20T12:44:50.764Z,17.85
2022-10-20T12:50:25.848Z,16.20
2022-10-20T12:55:40.979Z,15.95
2022-10-20T13:00:47.029Z,9.52
2022-10-20T13:05:49.244Z,12.37
2022-10-20T13:10:53.866Z,11.50
2022-10-20T13:15:56.453Z,10.48
2022-10-20T13:21:07.186Z,11.23
2022-10-20T13:26:24.759Z,11.20
2022-10-20T13:31:42.701Z,12.13
2022-10-20T13:36:59.680Z,9.52
2022-10-20T13:42:23.263Z,10.52
2022-10-20T13:47:51.846Z,13.48
2022-10-20T13:53:01.767Z,11.15
2022-10-20T13:58:14.540Z,11.70
2022-10-20T14:03:17.960Z,18.80
2022-10-20T14:08:23.565Z,13.98
2022-10-20T14:13:30.335Z,14.50
2022-10-20T14:18:36.047Z,10.10
2022-10-20T14:23:44.189Z,16.48
2022-10-20T14:28:49.783Z,9.60
2022-10-20T14:33:52.986Z,11.07
2022-10-20T14:39:00.103Z,12.88
2022-10-20T14:44:14.670Z,9.82
2022-10-20T14:49:28.975Z,9.05
2022-10-20T14:54:37.660Z,11.12
2022-10-20T15:00:21.791Z,10.52
2022-10-20T15:05:44.321Z,12.80
2022-10-20T15:10:46.921Z,19.23
2022-10-20T15:15:49.359Z,9.65
2022-10-20T15:20:53.486Z,12.73
2022-10-20T15:26:12.838Z,11.50
2022-10-20T15:31:25.104Z,15.75
2022-10-20T15:36:32.803Z,11.07
2022-10-20T15:41:35.885Z,13.60
2022-10-20T15:46:38.472Z,13.07
2022-10-20T15:51:48.083Z,12.48
2022-10-20T15:56:50.354Z,9.40
2022-10-20T16:01:52.458Z,10.02
2022-10-20T16:06:59.156Z,14.73
2022-10-20T16:12:04.140Z,11.12
2022-10-20T16:17:06.182Z,10.73
2022-10-20T16:22:08.462Z,12.77
2022-10-20T16:27:10.525Z,6.90
2022-10-20T16:32:12.577Z,19.10
2022-10-20T16:37:14.689Z,9.50
2022-10-20T16:42:16.811Z,12.48
2022-10-20T16:47:18.939Z,15.18
2022-10-20T16:52:21.131Z,14.25
2022-10-20T16:57:23.231Z,14.05
2022-10-20T17:02:25.351Z,11.98
2022-10-20T17:07:27.775Z,9.60
2022-10-20T17:12:29.836Z,26.00
2022-10-20T17:17:31.919Z,34.28
2022-10-20T17:22:34.551Z,145.15
2022-10-20T17:27:36.848Z,201.73
2022-10-20T17:32:39.441Z,165.37
2022-10-20T17:37:41.847Z,162.27
2022-10-20T17:42:43.874Z,170.98
2022-10-20T17:47:46.181Z,134.60
2022-10-20T17:52:48.243Z,113.62
2022-10-20T17:57:50.346Z,152.98
2022-10-20T18:02:52.445Z,170.15
2022-10-20T18:07:54.649Z,47.22
2022-10-20T18:12:56.669Z,21.95
2022-10-20T18:17:58.716Z,16.43
2022-10-20T18:23:00.806Z,16.12
2022-10-20T18:28:02.979Z,22.58
2022-10-20T18:33:05.027Z,204.85
2022-10-20T18:38:07.873Z,56.13
2022-10-20T18:43:09.925Z,98.68
2022-10-20T18:48:11.989Z,59.60
2022-10-20T18:53:14.307Z,38.45
2022-10-20T18:58:16.409Z,365.77
2022-10-20T19:03:18.466Z,414.73
2022-10-20T19:08:20.574Z,132.05
2022-10-20T19:13:25.893Z,47.17
2022-10-20T19:18:30.003Z,25.77
2022-10-20T19:23:34.125Z,20.00
2022-10-20T19:28:39.934Z,14.82
2022-10-20T19:33:42.139Z,17.37
2022-10-20T19:38:44.926Z,19.35
2022-10-20T19:48:49.929Z,16.83
2022-10-20T19:53:52.071Z,18.92
2022-10-20T19:58:54.804Z,20.05
2022-10-20T20:09:02.171Z,11.05
2022-10-20T20:14:07.912Z,12.00
2022-10-20T20:19:10.215Z,10.80
2022-10-20T20:24:14.193Z,15.55
2022-10-20T20:29:16.594Z,16.85
2022-10-20T20:34:18.682Z,13.27
2022-10-20T20:39:20.847Z,14.15
2022-10-20T20:49:30.159Z,11.55
2022-10-20T20:54:33.168Z,13.13
2022-10-20T20:59:35.474Z,14.25
2022-10-20T21:04:37.905Z,10.60
2022-10-20T21:09:39.975Z,10.98
2022-10-20T21:14:42.125Z,9.35
2022-10-20T21:19:44.243Z,9.20
2022-10-20T21:24:46.286Z,13.55
2022-10-20T21:29:48.426Z,14.80
2022-10-20T21:34:50.519Z,19.45
2022-10-20T21:39:52.532Z,16.30
2022-10-20T21:44:54.629Z,10.65
2022-10-20T21:49:56.677Z,9.80
2022-10-20T21:54:58.723Z,10.07
2022-10-20T22:00:00.748Z,9.60
2022-10-20T22:05:03.353Z,11.80
2022-10-20T22:15:08.259Z,7.68
2022-10-20T22:20:10.813Z,5.35
2022-10-20T22:25:13.310Z,9.80
2022-10-20T22:30:15.443Z,10.88
2022-10-20T22:35:17.521Z,12.50
2022-10-20T22:40:19.857Z,9.13
2022-10-20T22:45:22.369Z,9.30
2022-10-20T22:50:26.193Z,7.43
2022-10-20T22:55:28.345Z,6.62
2022-10-20T23:00:30.433Z,6.45
2022-10-20T23:05:32.554Z,11.10
2022-10-20T23:10:34.620Z,6.37
2022-10-20T23:15:36.708Z,5.82
2022-10-20T23:20:40.027Z,5.55
2022-10-20T23:25:42.954Z,4.35
2022-10-20T23:30:45.365Z,8.63
2022-10-20T23:35:48.116Z,5.20
2022-10-20T23:45:52.408Z,3.97
2022-10-20T23:50:54.715Z,5.22
2022-10-20T23:55:57.161Z,4.50
